Terminal Aerodrome Forecast
Issued by NWS Mt. Holly, NJ

Home | Current Version | Previous Version | Text Only | Print | Product List | Glossary On
Versions: 1 2 3 4 5 6 7 8 9 10 11 12 13 14 15 16 17 18 19 20 21
000
FTUS41 KPHI 302300
TAFRDG
TAF
KRDG 302322Z 3100/3124 24005KT P6SM FEW050
     FM310200 VRB03KT P6SM SCT060 BKN150
     FM311400 22008KT P6SM SCT050
     FM311700 25010KT P6SM BKN050=

USA.gov is the U.S. government's official web portal to all federal, state and local government web resources and services.